createdAt,value
2019-01-24T00:01:58.493Z,90.71
2019-01-24T00:05:59.589Z,90.70
2019-01-24T00:10:03.527Z,90.71
2019-01-24T00:14:05.640Z,90.71
2019-01-24T00:18:06.687Z,90.69
2019-01-24T00:22:08.000Z,90.68
2019-01-24T00:26:09.412Z,90.67
2019-01-24T00:30:11.795Z,90.69
2019-01-24T00:34:12.764Z,90.70
2019-01-24T00:38:13.982Z,90.71
2019-01-24T00:42:15.451Z,90.70
2019-01-24T00:46:16.914Z,90.72
2019-01-24T00:50:18.053Z,90.81
2019-01-24T00:54:19.203Z,90.82
2019-01-24T00:58:20.901Z,90.63
2019-01-24T01:02:22.079Z,90.15
2019-01-24T01:06:23.063Z,89.79
2019-01-24T01:10:24.095Z,89.58
2019-01-24T01:14:25.612Z,89.41
2019-01-24T01:18:27.177Z,88.93
2019-01-24T01:22:28.846Z,88.98
2019-01-24T01:26:30.142Z,88.97
2019-01-24T01:30:32.092Z,88.96
2019-01-24T01:34:36.468Z,89.00
2019-01-24T01:38:37.609Z,89.03
2019-01-24T01:42:38.671Z,88.96
2019-01-24T01:46:40.155Z,89.02
2019-01-24T01:50:42.259Z,88.97
2019-01-24T01:54:43.193Z,89.05
2019-01-24T01:58:44.787Z,88.91
2019-01-24T02:02:46.335Z,88.72
2019-01-24T02:06:47.653Z,88.78
2019-01-24T02:10:49.421Z,88.72
2019-01-24T02:14:51.845Z,88.57
2019-01-24T02:18:53.290Z,88.65
2019-01-24T02:22:54.378Z,88.60
2019-01-24T02:26:56.037Z,88.53
2019-01-24T02:30:57.823Z,88.17
2019-01-24T02:34:59.025Z,88.12
2019-01-24T02:39:00.240Z,87.91
2019-01-24T02:43:02.962Z,87.52
2019-01-24T02:47:04.243Z,87.56
2019-01-24T02:51:05.355Z,87.74
2019-01-24T02:55:07.211Z,87.97
2019-01-24T02:59:08.340Z,88.06
2019-01-24T03:03:09.516Z,88.03
2019-01-24T03:07:10.922Z,88.14
2019-01-24T03:11:12.505Z,88.18
2019-01-24T03:15:15.482Z,88.20
2019-01-24T03:19:16.762Z,88.16
2019-01-24T03:23:18.691Z,88.16
2019-01-24T03:27:20.521Z,87.80
2019-01-24T03:31:22.669Z,87.46
2019-01-24T03:35:26.274Z,87.22
2019-01-24T03:39:27.750Z,86.84
2019-01-24T03:43:29.044Z,86.89
2019-01-24T03:47:30.610Z,86.24
2019-01-24T03:51:32.178Z,86.20
2019-01-24T03:55:33.459Z,85.99
2019-01-24T03:59:34.807Z,85.78
2019-01-24T04:03:36.400Z,85.76
2019-01-24T04:07:39.161Z,86.16
2019-01-24T04:11:42.405Z,86.17
2019-01-24T04:15:43.693Z,85.99
2019-01-24T04:19:45.789Z,86.09
2019-01-24T04:23:46.961Z,86.08
2019-01-24T04:27:47.939Z,85.89
2019-01-24T04:31:49.310Z,85.55
2019-01-24T04:35:50.867Z,85.86
2019-01-24T04:39:52.919Z,85.91
2019-01-24T04:43:54.520Z,85.88
2019-01-24T04:47:58.093Z,86.00
2019-01-24T04:51:59.953Z,86.03
2019-01-24T04:56:01.338Z,85.89
2019-01-24T05:00:03.228Z,86.04
2019-01-24T05:04:04.874Z,86.12
2019-01-24T05:08:06.388Z,86.10
2019-01-24T05:12:08.902Z,86.03
2019-01-24T05:16:10.196Z,85.84
2019-01-24T05:20:15.422Z,85.82
2019-01-24T05:24:16.921Z,85.84
2019-01-24T05:28:18.595Z,85.37
2019-01-24T05:32:25.686Z,85.10
2019-01-24T05:36:27.033Z,84.86
2019-01-24T05:40:28.412Z,85.03
2019-01-24T05:44:29.652Z,85.06
2019-01-24T05:48:30.847Z,84.81
2019-01-24T05:52:32.289Z,84.93
2019-01-24T05:56:34.058Z,85.14
2019-01-24T06:00:41.179Z,84.86
2019-01-24T06:04:42.489Z,84.81
2019-01-24T06:08:44.763Z,84.82
2019-01-24T06:12:46.118Z,84.87
2019-01-24T06:16:47.383Z,84.57
2019-01-24T06:20:49.302Z,84.50
2019-01-24T06:24:50.889Z,84.37
2019-01-24T06:28:52.275Z,84.29
2019-01-24T06:32:53.935Z,84.19
2019-01-24T06:36:55.982Z,83.94
2019-01-24T06:40:57.200Z,83.92
2019-01-24T06:44:58.446Z,84.17
2019-01-24T06:48:59.654Z,83.82
2019-01-24T06:53:00.762Z,83.64
2019-01-24T06:57:01.816Z,83.64
2019-01-24T07:01:02.968Z,83.85
2019-01-24T07:05:04.181Z,83.46
2019-01-24T07:09:08.038Z,83.34
2019-01-24T07:13:10.305Z,83.16
2019-01-24T07:17:13.449Z,83.12
2019-01-24T07:21:14.849Z,83.47
2019-01-24T07:25:18.775Z,83.47
2019-01-24T07:29:20.062Z,83.15
2019-01-24T07:33:21.473Z,82.91
2019-01-24T07:37:22.827Z,82.63
2019-01-24T07:41:24.694Z,82.64
2019-01-24T07:45:32.193Z,82.98
2019-01-24T07:49:33.876Z,82.98
2019-01-24T07:53:35.347Z,82.58
2019-01-24T07:57:36.524Z,82.29
2019-01-24T08:01:37.871Z,81.96
2019-01-24T08:05:39.283Z,81.75
2019-01-24T08:09:40.998Z,81.89
2019-01-24T08:13:42.179Z,81.91
2019-01-24T08:17:43.472Z,81.56
2019-01-24T08:21:46.450Z,81.57
2019-01-24T08:25:47.702Z,81.32
2019-01-24T08:29:49.055Z,81.32
2019-01-24T08:33:50.896Z,81.17
2019-01-24T08:37:52.095Z,81.21
2019-01-24T08:41:53.864Z,81.27
2019-01-24T08:45:55.003Z,80.95
2019-01-24T08:49:57.053Z,81.07
2019-01-24T08:53:58.254Z,80.76
2019-01-24T08:57:59.479Z,80.56
2019-01-24T09:02:00.766Z,80.29
2019-01-24T09:06:02.221Z,80.29
2019-01-24T09:10:03.481Z,80.51
2019-01-24T09:14:04.652Z,80.37
2019-01-24T09:18:07.690Z,80.36
2019-01-24T09:22:08.974Z,80.40
2019-01-24T09:26:11.558Z,80.43
2019-01-24T09:30:16.034Z,80.37
2019-01-24T09:34:17.190Z,80.25
2019-01-24T09:38:18.410Z,79.95
2019-01-24T09:42:19.577Z,80.15
2019-01-24T09:46:20.662Z,80.00
2019-01-24T09:50:23.552Z,79.92
2019-01-24T09:54:24.788Z,79.54
2019-01-24T09:58:26.038Z,79.64
2019-01-24T10:02:27.254Z,79.64
2019-01-24T10:06:28.585Z,79.33
2019-01-24T10:10:29.802Z,79.39
2019-01-24T10:14:31.051Z,78.96
2019-01-24T10:18:32.366Z,79.46
2019-01-24T10:22:33.793Z,79.46
2019-01-24T10:26:35.087Z,78.90
2019-01-24T10:30:42.376Z,78.56
2019-01-24T10:34:39.445Z,78.64
2019-01-24T10:38:40.584Z,78.20
2019-01-24T10:42:41.912Z,77.91
2019-01-24T10:46:43.161Z,77.91
2019-01-24T10:50:44.604Z,78.18
2019-01-24T10:54:45.814Z,78.26
2019-01-24T10:58:47.010Z,78.34
2019-01-24T11:02:48.334Z,78.54
2019-01-24T11:06:50.090Z,78.54
2019-01-24T11:10:51.675Z,78.61
2019-01-24T11:14:53.081Z,78.52
2019-01-24T11:18:54.278Z,78.74
2019-01-24T11:22:55.534Z,78.75
2019-01-24T11:26:56.848Z,79.05
2019-01-24T11:30:59.219Z,79.05
2019-01-24T11:35:01.725Z,79.50
2019-01-24T11:39:03.731Z,79.50
2019-01-24T11:43:05.220Z,79.30
2019-01-24T11:47:06.669Z,79.58
2019-01-24T11:51:07.827Z,79.44
2019-01-24T11:55:09.974Z,79.48
2019-01-24T11:59:11.716Z,79.45
2019-01-24T12:03:13.841Z,78.85
2019-01-24T12:07:15.035Z,78.85
2019-01-24T12:11:16.096Z,79.03
2019-01-24T12:15:19.080Z,79.03
2019-01-24T12:19:20.389Z,79.22
2019-01-24T12:23:21.650Z,79.34
2019-01-24T12:27:23.014Z,79.25
2019-01-24T12:31:24.264Z,79.25
2019-01-24T12:35:25.302Z,79.49
2019-01-24T12:39:26.457Z,79.53
2019-01-24T12:43:27.524Z,79.83
2019-01-24T12:47:28.533Z,79.83
2019-01-24T12:51:29.571Z,80.16
2019-01-24T12:55:30.531Z,80.16
2019-01-24T12:59:31.598Z,80.27
2019-01-24T13:03:32.568Z,80.35
2019-01-24T13:07:33.597Z,80.59
2019-01-24T13:11:34.594Z,80.73
2019-01-24T13:15:35.759Z,80.65
2019-01-24T13:19:36.760Z,80.79
2019-01-24T13:23:37.811Z,81.02
2019-01-24T13:27:38.807Z,81.08
2019-01-24T13:31:39.874Z,81.16
2019-01-24T13:35:40.856Z,81.66
2019-01-24T13:39:42.980Z,81.51
2019-01-24T13:43:44.253Z,81.70
2019-01-24T13:47:45.358Z,81.58
2019-01-24T13:51:46.377Z,81.68
2019-01-24T13:55:47.392Z,81.70
2019-01-24T13:59:48.410Z,81.77
2019-01-24T14:04:05.622Z,81.96
2019-01-24T14:08:06.669Z,82.04
2019-01-24T14:12:07.751Z,81.99
2019-01-24T14:16:08.813Z,81.79
2019-01-24T14:20:12.728Z,81.91
2019-01-24T14:24:13.673Z,81.95
2019-01-24T14:28:14.740Z,82.06
2019-01-24T14:32:15.749Z,81.99
2019-01-24T14:36:16.809Z,82.00
2019-01-24T14:40:18.847Z,82.04
2019-01-24T14:44:19.853Z,82.13
2019-01-24T14:48:21.320Z,82.10
2019-01-24T14:52:22.727Z,82.27
2019-01-24T14:56:23.700Z,82.29
2019-01-24T15:00:27.733Z,82.22
2019-01-24T15:04:28.838Z,82.24
2019-01-24T15:08:30.168Z,82.11
2019-01-24T15:12:31.443Z,82.23
2019-01-24T15:16:32.747Z,82.37
2019-01-24T15:20:34.003Z,82.47
2019-01-24T15:24:35.348Z,82.28
2019-01-24T15:28:36.470Z,82.39
2019-01-24T15:32:37.829Z,82.51
2019-01-24T15:36:40.749Z,82.52
2019-01-24T15:40:42.091Z,82.67
2019-01-24T15:44:43.367Z,82.61
2019-01-24T15:48:44.745Z,82.54
2019-01-24T15:52:46.490Z,82.92
2019-01-24T15:56:47.907Z,82.94
2019-01-24T16:00:48.884Z,82.64
2019-01-24T16:04:49.983Z,82.69
2019-01-24T16:08:50.977Z,82.68
2019-01-24T16:12:52.098Z,82.84
2019-01-24T16:16:53.121Z,82.97
2019-01-24T16:20:54.230Z,83.08
2019-01-24T16:24:55.256Z,83.11
2019-01-24T16:28:56.330Z,83.03
2019-01-24T16:32:57.414Z,83.24
2019-01-24T16:36:58.509Z,83.29
2019-01-24T16:40:59.466Z,83.22
2019-01-24T16:45:00.546Z,83.22
2019-01-24T16:49:01.541Z,83.11
2019-01-24T16:53:02.555Z,83.27
2019-01-24T16:57:04.833Z,83.25
2019-01-24T17:01:21.326Z,83.30
2019-01-24T17:05:22.450Z,83.33
2019-01-24T17:09:26.880Z,83.40
2019-01-24T17:13:28.300Z,83.41
2019-01-24T17:17:30.411Z,83.41
2019-01-24T17:21:31.922Z,83.46
2019-01-24T17:25:33.823Z,83.30
2019-01-24T17:29:35.790Z,83.51
2019-01-24T17:33:37.780Z,83.65
2019-01-24T17:37:40.316Z,83.71
2019-01-24T17:41:41.380Z,83.70
2019-01-24T17:45:42.414Z,83.61
2019-01-24T17:49:43.955Z,83.49
2019-01-24T17:53:45.309Z,83.67
2019-01-24T17:57:46.405Z,83.67
2019-01-24T18:01:48.098Z,83.55
2019-01-24T18:05:49.211Z,83.37
2019-01-24T18:09:50.225Z,83.42
2019-01-24T18:13:51.330Z,83.53
2019-01-24T18:17:52.345Z,83.50
2019-01-24T18:21:53.471Z,83.52
2019-01-24T18:25:54.498Z,83.71
2019-01-24T18:29:55.612Z,83.83
2019-01-24T18:33:56.673Z,83.96
2019-01-24T18:37:58.370Z,84.07
2019-01-24T18:42:12.793Z,83.85
2019-01-24T18:46:14.278Z,83.75
2019-01-24T18:50:18.722Z,83.82
2019-01-24T18:54:20.885Z,83.80
2019-01-24T18:58:22.450Z,83.65
2019-01-24T19:02:23.777Z,83.58
2019-01-24T19:06:24.993Z,83.64
2019-01-24T19:10:26.338Z,83.54
2019-01-24T19:14:27.938Z,83.76
2019-01-24T19:18:29.303Z,83.83
2019-01-24T19:22:32.841Z,83.83
2019-01-24T19:26:34.199Z,83.66
2019-01-24T19:30:35.287Z,83.76
2019-01-24T19:34:36.981Z,83.72
2019-01-24T19:38:38.021Z,83.72
2019-01-24T19:42:39.734Z,83.85
2019-01-24T19:46:41.367Z,83.85
2019-01-24T19:50:42.442Z,83.93
2019-01-24T19:54:44.752Z,83.93
2019-01-24T19:58:46.386Z,83.70
2019-01-24T20:02:47.461Z,83.80
2019-01-24T20:06:49.293Z,83.86
2019-01-24T20:10:50.484Z,83.73
2019-01-24T20:14:51.486Z,83.77
2019-01-24T20:18:52.485Z,83.85
2019-01-24T20:22:54.105Z,83.96
2019-01-24T20:26:55.130Z,83.96
2019-01-24T20:30:56.354Z,83.97
2019-01-24T20:34:57.358Z,83.97
2019-01-24T20:38:58.479Z,84.10
2019-01-24T20:43:00.015Z,83.81
2019-01-24T20:47:01.114Z,83.87
2019-01-24T20:51:02.318Z,83.90
2019-01-24T20:55:04.429Z,83.95
2019-01-24T20:59:06.632Z,83.86
2019-01-24T21:03:08.972Z,84.03
2019-01-24T21:07:10.559Z,84.05
2019-01-24T21:11:12.679Z,84.05
2019-01-24T21:15:15.169Z,84.22
2019-01-24T21:19:16.211Z,84.28
2019-01-24T21:23:17.398Z,84.36
2019-01-24T21:27:18.919Z,84.48
2019-01-24T21:31:19.899Z,84.94
2019-01-24T21:35:21.763Z,84.94
2019-01-24T21:39:22.945Z,84.69
2019-01-24T21:43:24.675Z,84.69
2019-01-24T21:47:26.202Z,84.67
2019-01-24T21:51:27.525Z,84.70
2019-01-24T21:55:29.393Z,84.40
2019-01-24T21:59:30.701Z,84.14
2019-01-24T22:03:31.886Z,84.11
2019-01-24T22:07:33.842Z,84.02
2019-01-24T22:11:35.019Z,83.95
2019-01-24T22:15:36.052Z,83.73
2019-01-24T22:19:37.459Z,83.98
2019-01-24T22:23:38.495Z,83.89
2019-01-24T22:27:39.443Z,83.96
2019-01-24T22:31:40.458Z,84.06
2019-01-24T22:35:41.439Z,84.18
2019-01-24T22:39:43.060Z,84.30
2019-01-24T22:43:44.592Z,84.15
2019-01-24T22:47:45.778Z,84.27
2019-01-24T22:51:46.771Z,84.23
2019-01-24T22:55:48.328Z,84.31
2019-01-24T22:59:49.287Z,84.21
2019-01-24T23:04:04.702Z,84.31
2019-01-24T23:08:07.422Z,84.42
2019-01-24T23:12:09.794Z,84.51
2019-01-24T23:16:11.203Z,84.41
2019-01-24T23:20:12.266Z,84.45
2019-01-24T23:24:14.175Z,84.41
2019-01-24T23:28:15.441Z,84.57
2019-01-24T23:32:17.113Z,84.61
2019-01-24T23:36:18.810Z,84.96
2019-01-24T23:40:21.256Z,85.07
2019-01-24T23:44:22.806Z,85.05
2019-01-24T23:48:24.199Z,85.04
2019-01-24T23:52:25.275Z,85.04
2019-01-24T23:56:26.785Z,85.18
